createdAt,value
2017-04-10T00:01:00.224Z,33.25
2017-04-10T00:02:06.147Z,40.33
2017-04-10T00:03:12.856Z,37.10
2017-04-10T00:04:19.124Z,42.15
2017-04-10T00:05:24.897Z,49.73
2017-04-10T00:06:31.717Z,41.45
2017-04-10T00:07:38.417Z,36.88
2017-04-10T00:08:44.356Z,38.27
2017-04-10T00:09:50.433Z,37.03
2017-04-10T00:10:56.580Z,35.72
2017-04-10T00:12:03.442Z,35.88
2017-04-10T00:13:09.632Z,38.85
2017-04-10T00:14:15.755Z,37.20
2017-04-10T00:15:21.876Z,41.58
2017-04-10T00:16:27.969Z,40.43
2017-04-10T00:17:34.139Z,39.62
2017-04-10T00:18:40.215Z,40.80
2017-04-10T00:19:46.267Z,43.90
2017-04-10T00:20:52.351Z,41.97
2017-04-10T00:21:58.344Z,36.02
2017-04-10T00:23:04.643Z,45.58
2017-04-10T00:24:11.400Z,42.10
2017-04-10T00:25:17.502Z,38.50
2017-04-10T00:26:23.550Z,41.72
2017-04-10T00:27:29.566Z,40.53
2017-04-10T00:28:35.715Z,43.63
2017-04-10T00:29:41.746Z,42.73
2017-04-10T00:30:47.740Z,41.38
2017-04-10T00:31:53.705Z,39.13
2017-04-10T00:32:59.885Z,46.18
2017-04-10T00:34:06.156Z,39.53
2017-04-10T00:35:13.259Z,46.12
2017-04-10T00:36:20.109Z,42.83
2017-04-10T00:37:26.864Z,45.40
2017-04-10T00:38:33.692Z,43.53
2017-04-10T00:39:39.841Z,42.52
2017-04-10T00:40:45.860Z,40.18
2017-04-10T00:41:51.824Z,41.82
2017-04-10T00:42:58.580Z,37.42
2017-04-10T00:44:04.770Z,43.33
2017-04-10T00:45:11.009Z,40.50
2017-04-10T00:46:17.031Z,39.10
2017-04-10T00:47:23.081Z,47.20
2017-04-10T00:48:29.066Z,50.37
2017-04-10T00:49:36.040Z,39.73
2017-04-10T00:50:42.154Z,43.92
2017-04-10T00:51:49.085Z,44.92
2017-04-10T00:52:55.912Z,39.88
2017-04-10T00:54:01.928Z,40.42
2017-04-10T00:55:08.092Z,48.82
2017-04-10T00:56:14.820Z,44.88
2017-04-10T00:57:21.408Z,45.37
2017-04-10T00:58:27.468Z,40.13
2017-04-10T00:59:33.644Z,44.52
2017-04-10T01:00:39.571Z,46.40
2017-04-10T01:01:45.680Z,38.77
2017-04-10T01:02:52.741Z,44.13
2017-04-10T01:03:58.724Z,43.50
2017-04-10T01:05:05.567Z,42.95
2017-04-10T01:06:11.649Z,45.55
2017-04-10T01:07:17.960Z,51.32
2017-04-10T01:08:24.762Z,44.17
2017-04-10T01:09:30.975Z,44.52
2017-04-10T01:10:36.952Z,45.33
2017-04-10T01:11:42.942Z,41.70
2017-04-10T01:12:48.985Z,43.82
2017-04-10T01:13:54.944Z,45.08
2017-04-10T01:15:01.094Z,49.83
2017-04-10T01:16:07.850Z,47.68
2017-04-10T01:17:14.810Z,43.40
2017-04-10T01:18:20.971Z,42.35
2017-04-10T01:19:27.861Z,40.68
2017-04-10T01:20:34.011Z,41.42
2017-04-10T01:21:39.936Z,44.00
2017-04-10T01:22:45.904Z,47.55
2017-04-10T01:23:52.669Z,45.72
2017-04-10T01:24:58.648Z,49.28
2017-04-10T01:26:04.603Z,45.08
2017-04-10T01:27:11.534Z,47.78
2017-04-10T01:28:17.548Z,50.70
2017-04-10T01:29:23.849Z,40.95
2017-04-10T01:30:29.877Z,44.57
2017-04-10T01:31:35.947Z,54.05
2017-04-10T01:32:41.990Z,46.90
2017-04-10T01:33:47.944Z,42.77
2017-04-10T01:34:54.145Z,49.25
2017-04-10T01:36:00.119Z,44.13
2017-04-10T01:37:06.129Z,45.50
2017-04-10T01:38:12.212Z,46.32
2017-04-10T01:39:18.116Z,47.75
2017-04-10T01:40:24.164Z,54.17
2017-04-10T01:41:30.845Z,49.33
2017-04-10T01:42:36.836Z,49.03
2017-04-10T01:43:42.921Z,48.80
2017-04-10T01:44:49.777Z,45.02
2017-04-10T01:45:56.586Z,41.15
2017-04-10T01:47:03.421Z,50.58
2017-04-10T01:48:10.216Z,51.27
2017-04-10T01:49:16.563Z,47.22
2017-04-10T01:50:22.525Z,46.93
2017-04-10T01:51:28.777Z,46.15
2017-04-10T01:52:35.502Z,49.40
2017-04-10T01:53:42.224Z,47.00
2017-04-10T01:54:49.055Z,50.78
2017-04-10T01:55:55.216Z,49.82
2017-04-10T01:57:01.295Z,56.88
2017-04-10T01:58:08.037Z,50.15
2017-04-10T01:59:14.072Z,50.65
2017-04-10T02:00:20.077Z,49.37
2017-04-10T02:01:26.084Z,54.12
2017-04-10T02:02:33.281Z,52.13
2017-04-10T02:03:39.368Z,48.63
2017-04-10T02:04:46.068Z,53.17
2017-04-10T02:05:52.749Z,57.55
2017-04-10T02:06:58.775Z,49.58
2017-04-10T02:08:05.920Z,57.12
2017-04-10T02:09:12.161Z,52.77
2017-04-10T02:10:18.200Z,56.25
2017-04-10T02:11:24.073Z,52.00
2017-04-10T02:12:30.059Z,47.28
2017-04-10T02:13:36.441Z,48.75
2017-04-10T02:14:42.480Z,53.35
2017-04-10T02:15:48.441Z,55.68
2017-04-10T02:16:54.537Z,49.17
2017-04-10T02:18:00.431Z,58.70
2017-04-10T02:19:06.552Z,52.55
2017-04-10T02:20:12.558Z,55.28
2017-04-10T02:21:18.648Z,59.15
2017-04-10T02:22:24.771Z,56.72
2017-04-10T02:23:31.081Z,58.40
2017-04-10T02:24:37.373Z,49.38
2017-04-10T02:25:43.404Z,58.65
2017-04-10T02:26:49.451Z,48.38
2017-04-10T02:27:56.224Z,48.18
2017-04-10T02:29:02.308Z,50.38
2017-04-10T02:30:08.634Z,51.40
2017-04-10T02:31:15.385Z,52.25
2017-04-10T02:32:21.454Z,56.13
2017-04-10T02:33:27.632Z,54.83
2017-04-10T02:34:33.641Z,59.50
2017-04-10T02:35:39.745Z,57.52
2017-04-10T02:36:45.802Z,54.63
2017-04-10T02:37:52.623Z,57.33
2017-04-10T02:38:58.724Z,58.93
2017-04-10T02:40:04.705Z,57.83
2017-04-10T02:41:10.711Z,59.23
2017-04-10T02:42:16.818Z,65.30
2017-04-10T02:43:22.735Z,51.57
2017-04-10T02:44:28.910Z,55.13
2017-04-10T02:45:34.992Z,55.88
2017-04-10T02:46:41.010Z,52.28
2017-04-10T02:47:47.060Z,55.77
2017-04-10T02:48:53.096Z,60.57
2017-04-10T02:49:59.148Z,53.90
2017-04-10T02:51:05.077Z,62.47
2017-04-10T02:52:11.372Z,58.20
2017-04-10T02:53:18.062Z,55.32
2017-04-10T02:54:24.129Z,56.23
2017-04-10T02:55:30.281Z,57.87
2017-04-10T02:56:36.397Z,53.83
2017-04-10T02:57:42.463Z,62.78
2017-04-10T02:58:48.467Z,54.20
2017-04-10T02:59:54.472Z,59.60
2017-04-10T03:01:00.528Z,53.15
2017-04-10T03:02:06.444Z,59.83
2017-04-10T03:03:12.596Z,60.95
2017-04-10T03:04:18.664Z,59.20
2017-04-10T03:05:24.594Z,59.53
2017-04-10T03:06:30.639Z,61.87
2017-04-10T03:07:36.724Z,65.20
2017-04-10T03:08:42.979Z,63.35
2017-04-10T03:09:49.768Z,63.35
2017-04-10T03:10:55.853Z,63.37
2017-04-10T03:13:42.536Z,59.87
2017-04-10T03:14:49.342Z,55.97
2017-04-10T03:15:55.352Z,57.63
2017-04-10T03:20:09.212Z,59.98
2017-04-10T03:21:15.192Z,59.38
2017-04-10T03:22:21.186Z,59.18
2017-04-10T03:23:27.968Z,57.17
2017-04-10T03:24:34.665Z,61.33
2017-04-10T03:25:40.914Z,59.07
2017-04-10T03:26:46.825Z,59.07
2017-04-10T03:27:52.737Z,56.33
2017-04-10T03:28:58.779Z,57.00
2017-04-10T03:30:04.712Z,56.05
2017-04-10T03:31:10.737Z,63.62
2017-04-10T03:32:16.893Z,55.62
2017-04-10T03:33:22.845Z,63.10
2017-04-10T03:34:28.782Z,59.15
2017-04-10T03:35:34.778Z,52.70
2017-04-10T03:36:40.950Z,57.33
2017-04-10T03:37:46.989Z,57.87
2017-04-10T03:38:53.703Z,54.65
2017-04-10T03:39:59.775Z,64.40
2017-04-10T03:47:25.395Z,55.87
2017-04-10T03:48:31.443Z,53.22
2017-04-10T03:49:37.396Z,52.27
2017-04-10T03:50:44.133Z,61.95
2017-04-10T03:51:50.103Z,49.22
2017-04-10T03:52:56.390Z,64.63
2017-04-10T03:54:02.565Z,64.50
2017-04-10T03:55:08.526Z,57.70
2017-04-10T03:56:15.610Z,65.92
2017-04-10T03:57:21.705Z,60.52
2017-04-10T03:58:28.540Z,55.47
2017-04-10T03:59:35.392Z,57.75
2017-04-10T04:00:41.407Z,63.33
2017-04-10T04:01:47.433Z,62.65
2017-04-10T04:02:53.492Z,61.82
2017-04-10T04:03:59.603Z,58.65
2017-04-10T04:05:10.718Z,53.98
2017-04-10T04:06:16.576Z,56.52
2017-04-10T04:07:22.601Z,60.20
2017-04-10T04:08:28.652Z,61.15
2017-04-10T04:09:34.965Z,65.98
2017-04-10T04:10:40.999Z,57.80
2017-04-10T04:11:47.059Z,62.97
2017-04-10T04:12:53.862Z,65.88
2017-04-10T04:14:00.568Z,64.05
2017-04-10T04:15:07.391Z,63.23
2017-04-10T04:16:13.372Z,64.22
2017-04-10T04:17:19.296Z,68.25
2017-04-10T04:18:25.386Z,64.88
2017-04-10T04:19:31.581Z,58.92
2017-04-10T04:20:38.830Z,59.15
2017-04-10T04:21:44.796Z,63.72
2017-04-10T04:22:51.294Z,66.02
2017-04-10T04:23:59.384Z,67.48
2017-04-10T04:25:05.635Z,67.72
2017-04-10T04:26:11.959Z,73.90
2017-04-10T04:27:18.061Z,70.12
2017-04-10T04:28:24.689Z,58.92
2017-04-10T04:29:30.757Z,71.78
2017-04-10T04:30:36.784Z,68.18
2017-04-10T04:31:43.933Z,71.78
2017-04-10T04:32:50.148Z,61.30
2017-04-10T04:33:56.101Z,68.17
2017-04-10T04:35:04.988Z,62.23
2017-04-10T04:36:11.019Z,66.52
2017-04-10T04:37:17.350Z,60.72
2017-04-10T04:38:23.261Z,60.63
2017-04-10T04:39:29.267Z,67.63
2017-04-10T04:40:35.869Z,69.37
2017-04-10T04:41:42.031Z,64.43
2017-04-10T04:42:47.991Z,62.00
2017-04-10T04:43:54.053Z,55.55
2017-04-10T04:45:00.179Z,71.60
2017-04-10T04:46:06.122Z,63.58
2017-04-10T04:47:12.152Z,67.83
2017-04-10T04:48:18.260Z,71.33
2017-04-10T04:49:24.310Z,57.83
2017-04-10T04:50:30.404Z,65.42
2017-04-10T04:51:36.415Z,65.65
2017-04-10T04:52:42.568Z,73.18
2017-04-10T04:53:48.714Z,65.40
2017-04-10T04:54:55.453Z,67.32
2017-04-10T04:56:01.645Z,64.87
2017-04-10T04:57:07.628Z,70.15
2017-04-10T04:58:17.642Z,62.97
2017-04-10T04:59:25.452Z,77.25
2017-04-10T05:00:31.373Z,71.45
2017-04-10T05:01:38.086Z,79.12
2017-04-10T05:02:44.197Z,70.38
2017-04-10T05:03:50.080Z,79.85
2017-04-10T05:04:56.349Z,71.08
2017-04-10T05:06:02.279Z,62.43
2017-04-10T05:07:08.316Z,75.28
2017-04-10T05:08:14.256Z,70.75
2017-04-10T05:09:20.284Z,72.73
2017-04-10T05:10:26.379Z,69.52
2017-04-10T05:11:32.443Z,74.55
2017-04-10T05:12:38.384Z,64.70
2017-04-10T05:13:44.675Z,47.77
2017-04-10T05:14:50.611Z,68.00
2017-04-10T05:15:56.774Z,66.67
2017-04-10T05:17:02.740Z,84.28
2017-04-10T05:18:08.890Z,62.65
2017-04-10T05:19:15.144Z,76.50
2017-04-10T05:20:21.347Z,83.97
2017-04-10T05:21:28.229Z,71.58
2017-04-10T05:22:35.184Z,72.80
2017-04-10T05:23:41.180Z,41.32
2017-04-10T05:24:47.432Z,65.35
2017-04-10T05:25:53.586Z,70.02
2017-04-10T05:26:59.751Z,58.20
2017-04-10T05:28:06.361Z,67.55
2017-04-10T05:29:13.951Z,80.22
2017-04-10T05:30:21.033Z,54.30
2017-04-10T05:31:26.980Z,75.55
2017-04-10T05:32:32.951Z,70.58
2017-04-10T05:33:38.971Z,73.63
2017-04-10T05:34:45.158Z,65.53
2017-04-10T05:35:51.921Z,68.48
2017-04-10T05:36:58.222Z,65.45
2017-04-10T05:38:06.691Z,72.20
2017-04-10T05:39:12.711Z,66.98
2017-04-10T05:40:19.565Z,65.33
2017-04-10T05:41:27.508Z,69.40
2017-04-10T05:42:33.744Z,64.17
2017-04-10T05:43:40.610Z,38.03
2017-04-10T05:44:46.714Z,55.20
2017-04-10T05:45:52.763Z,58.72
2017-04-10T05:46:58.731Z,61.75
2017-04-10T05:48:04.728Z,69.80
2017-04-10T05:49:12.576Z,50.45
2017-04-10T05:50:18.540Z,53.90
2017-04-10T05:51:24.620Z,60.12
2017-04-10T05:52:32.595Z,59.48
2017-04-10T05:53:38.491Z,52.38
2017-04-10T05:54:45.924Z,40.55
2017-04-10T05:55:53.795Z,59.70
2017-04-10T05:57:00.539Z,64.15
2017-04-10T05:58:06.829Z,28.18
2017-04-10T05:59:12.893Z,55.95
2017-04-10T06:00:19.618Z,49.83
2017-04-10T06:01:25.698Z,54.20
2017-04-10T06:02:31.783Z,34.80
2017-04-10T06:03:39.091Z,39.23
2017-04-10T06:04:45.962Z,55.88
2017-04-10T06:05:52.097Z,55.58
2017-04-10T06:06:58.125Z,25.27
2017-04-10T06:08:05.023Z,32.73
2017-04-10T06:09:10.977Z,59.62
2017-04-10T06:10:17.061Z,49.98
2017-04-10T06:11:23.852Z,35.28
2017-04-10T06:12:29.854Z,34.13
2017-04-10T06:13:36.649Z,46.55
2017-04-10T06:14:42.716Z,36.47
2017-04-10T06:15:48.828Z,35.25
2017-04-10T06:16:54.956Z,47.40
2017-04-10T06:18:01.610Z,43.13
2017-04-10T06:19:07.666Z,31.03
2017-04-10T06:20:14.188Z,34.72
2017-04-10T06:21:20.505Z,25.92
2017-04-10T06:22:26.537Z,51.17
2017-04-10T06:23:32.959Z,49.78
2017-04-10T06:24:40.112Z,40.33
2017-04-10T06:25:46.085Z,39.57
2017-04-10T06:26:52.212Z,40.78
2017-04-10T06:27:58.426Z,17.68
2017-04-10T06:29:04.429Z,39.27
2017-04-10T06:30:11.160Z,36.88
2017-04-10T06:31:17.103Z,21.13
2017-04-10T06:32:23.419Z,29.37
2017-04-10T06:33:29.572Z,34.62
2017-04-10T06:34:35.800Z,21.92
2017-04-10T06:35:42.664Z,25.25
2017-04-10T06:36:48.717Z,23.85
2017-04-10T06:37:54.836Z,22.62
2017-04-10T06:39:00.991Z,18.62
2017-04-10T06:40:07.650Z,24.00
2017-04-10T06:41:13.746Z,18.58
2017-04-10T06:42:19.688Z,27.83
2017-04-10T06:43:25.886Z,24.23
2017-04-10T06:44:32.095Z,21.50
2017-04-10T06:45:37.960Z,15.63
2017-04-10T06:46:45.104Z,24.43
2017-04-10T06:47:51.821Z,15.97
2017-04-10T06:48:58.191Z,12.47
2017-04-10T06:50:05.012Z,21.98
2017-04-10T06:51:11.694Z,18.15
2017-04-10T06:52:17.891Z,20.68
2017-04-10T06:53:23.858Z,27.58
2017-04-10T06:54:31.069Z,17.98
2017-04-10T06:55:37.359Z,20.73
2017-04-10T06:56:44.155Z,14.50
2017-04-10T06:57:50.939Z,15.25
2017-04-10T06:58:57.273Z,20.52
2017-04-10T07:00:03.351Z,22.95
2017-04-10T07:01:10.632Z,16.97
2017-04-10T07:02:16.543Z,16.68
2017-04-10T07:03:22.613Z,14.10
2017-04-10T07:04:28.588Z,15.18
2017-04-10T07:05:34.671Z,20.08
2017-04-10T07:06:40.736Z,18.92
2017-04-10T07:07:46.762Z,20.13
2017-04-10T07:08:52.704Z,38.80
2017-04-10T07:09:58.736Z,23.68
2017-04-10T07:11:04.633Z,17.93
2017-04-10T07:12:10.783Z,10.83
2017-04-10T07:13:16.763Z,14.93
2017-04-10T07:14:24.506Z,24.13
2017-04-10T07:15:30.399Z,21.82
2017-04-10T07:16:36.401Z,16.43
2017-04-10T07:17:42.604Z,17.03
2017-04-10T07:18:48.597Z,18.77
2017-04-10T07:19:54.668Z,23.47
2017-04-10T07:21:00.564Z,23.90
2017-04-10T07:22:06.600Z,20.30
2017-04-10T07:23:13.692Z,22.73
2017-04-10T07:24:19.824Z,21.17
2017-04-10T07:25:25.916Z,24.50
2017-04-10T07:26:31.965Z,14.20
2017-04-10T07:27:37.963Z,24.65
2017-04-10T07:28:43.832Z,14.43
2017-04-10T07:29:49.901Z,15.40
2017-04-10T07:30:56.741Z,21.47
2017-04-10T07:32:02.819Z,15.02
2017-04-10T07:33:08.797Z,13.85
2017-04-10T07:34:15.566Z,15.62
2017-04-10T07:35:21.616Z,12.28
2017-04-10T07:36:27.596Z,10.08
2017-04-10T07:37:33.601Z,15.95
2017-04-10T07:38:39.576Z,17.25
2017-04-10T07:39:45.759Z,18.63
2017-04-10T07:40:51.793Z,20.10
2017-04-10T07:41:57.831Z,14.55
2017-04-10T07:43:04.603Z,15.85
2017-04-10T07:44:11.356Z,20.10
2017-04-10T07:45:18.121Z,17.45
2017-04-10T07:46:24.169Z,19.75
2017-04-10T07:47:30.288Z,13.88
2017-04-10T07:48:36.343Z,21.10
2017-04-10T07:49:43.390Z,17.10
2017-04-10T07:50:49.504Z,16.85
2017-04-10T07:51:55.732Z,17.90
2017-04-10T07:53:01.879Z,13.98
2017-04-10T07:54:07.959Z,11.32
2017-04-10T07:55:14.046Z,14.43
2017-04-10T07:56:20.219Z,19.70
2017-04-10T07:57:26.449Z,13.75
2017-04-10T07:58:33.103Z,11.52
2017-04-10T07:59:39.132Z,8.35
2017-04-10T08:00:45.267Z,10.53
2017-04-10T08:01:52.325Z,17.67
2017-04-10T08:02:59.052Z,8.63
2017-04-10T08:04:05.021Z,11.55
2017-04-10T08:05:11.544Z,11.88
2017-04-10T08:06:17.552Z,15.00
2017-04-10T08:07:23.946Z,7.22
2017-04-10T08:08:29.914Z,11.90
2017-04-10T08:09:36.564Z,6.05
2017-04-10T08:10:42.619Z,7.62
2017-04-10T08:11:48.587Z,11.15
2017-04-10T08:12:54.660Z,9.90
2017-04-10T08:14:00.716Z,6.58
2017-04-10T08:15:06.753Z,7.37
2017-04-10T08:16:13.441Z,11.90
2017-04-10T08:17:19.403Z,8.00
2017-04-10T08:18:26.324Z,7.28
2017-04-10T08:19:33.046Z,13.68
2017-04-10T08:20:39.019Z,9.27
2017-04-10T08:21:45.784Z,7.17
2017-04-10T08:22:51.995Z,7.08
2017-04-10T08:23:57.941Z,7.72
2017-04-10T08:25:04.100Z,8.18
2017-04-10T08:26:10.586Z,5.73
2017-04-10T08:27:16.628Z,11.67
2017-04-10T08:28:22.747Z,9.28
2017-04-10T08:29:28.728Z,8.18
2017-04-10T08:30:35.403Z,13.28
2017-04-10T08:31:41.503Z,6.07
2017-04-10T08:32:47.604Z,5.62
2017-04-10T08:33:53.627Z,3.87
2017-04-10T08:34:59.794Z,8.12
2017-04-10T08:36:05.812Z,5.43
2017-04-10T08:37:11.944Z,7.35
2017-04-10T08:38:18.039Z,4.85
2017-04-10T08:39:24.334Z,3.52
2017-04-10T08:40:30.984Z,2.75
2017-04-10T08:41:36.860Z,4.78
2017-04-10T08:42:42.851Z,5.48
2017-04-10T08:43:49.644Z,10.35
2017-04-10T08:44:55.669Z,9.60
2017-04-10T08:46:02.474Z,6.35
2017-04-10T08:47:09.384Z,8.20
2017-04-10T08:48:15.516Z,2.83
2017-04-10T08:49:21.709Z,4.68
2017-04-10T08:50:27.868Z,4.67
2017-04-10T08:51:34.202Z,8.15
2017-04-10T08:52:40.427Z,5.28
2017-04-10T08:53:46.396Z,10.67
2017-04-10T08:54:52.360Z,4.07
2017-04-10T08:55:58.478Z,5.07
2017-04-10T08:57:04.647Z,7.60
2017-04-10T08:58:10.688Z,6.67
2017-04-10T08:59:16.964Z,3.05
2017-04-10T09:00:23.676Z,2.20
2017-04-10T09:01:30.739Z,8.05
2017-04-10T09:02:37.251Z,4.30
2017-04-10T09:03:43.439Z,3.07
2017-04-10T09:04:49.532Z,8.97
2017-04-10T09:05:55.598Z,4.80
2017-04-10T09:07:01.648Z,2.78
2017-04-10T09:08:07.674Z,3.17
2017-04-10T09:09:13.668Z,4.35
2017-04-10T09:10:19.690Z,2.92
2017-04-10T09:11:26.212Z,0.85
2017-04-10T09:12:33.091Z,2.75
2017-04-10T09:13:39.111Z,2.25
2017-04-10T09:14:45.041Z,5.72
2017-04-10T09:15:51.792Z,3.38
2017-04-10T09:16:57.883Z,0.78
2017-04-10T09:18:03.863Z,3.37
2017-04-10T09:19:10.223Z,1.22
2017-04-10T09:20:16.965Z,5.02
2017-04-10T09:21:23.187Z,1.65
2017-04-10T09:22:30.072Z,4.60
2017-04-10T09:23:36.239Z,3.62
2017-04-10T09:24:42.255Z,7.03
2017-04-10T09:25:48.317Z,9.15
2017-04-10T09:26:54.985Z,3.97
2017-04-10T09:28:00.909Z,1.90
2017-04-10T09:29:06.963Z,5.88
2017-04-10T09:30:13.849Z,4.63
2017-04-10T09:31:19.806Z,7.57
2017-04-10T09:32:26.953Z,0.87
2017-04-10T09:33:33.700Z,2.83
2017-04-10T09:34:39.888Z,6.08
2017-04-10T09:35:45.962Z,6.35
2017-04-10T09:36:52.033Z,3.00
2017-04-10T09:37:58.032Z,8.27
2017-04-10T09:39:04.332Z,5.88
2017-04-10T09:40:10.489Z,6.37
2017-04-10T09:41:16.716Z,2.48
2017-04-10T09:42:22.737Z,5.72
2017-04-10T09:43:28.805Z,4.70
2017-04-10T09:44:34.891Z,6.10
2017-04-10T09:49:00.763Z,1.37
2017-04-10T09:50:07.529Z,5.95
2017-04-10T09:51:13.615Z,6.00
2017-04-10T09:52:19.687Z,4.43
2017-04-10T09:53:25.785Z,4.13
2017-04-10T09:54:32.533Z,2.30
2017-04-10T09:55:38.491Z,5.40
2017-04-10T09:56:44.596Z,1.90
2017-04-10T09:57:50.509Z,3.80
2017-04-10T09:58:56.536Z,3.15
2017-04-10T10:00:02.873Z,3.65
2017-04-10T10:01:08.839Z,1.68
2017-04-10T10:02:15.728Z,9.80
2017-04-10T10:03:21.795Z,4.25
2017-04-10T10:04:27.852Z,2.42
2017-04-10T10:05:34.664Z,2.23
2017-04-10T10:06:40.717Z,1.73
2017-04-10T10:07:46.781Z,6.72
2017-04-10T10:08:52.863Z,2.75
2017-04-10T10:09:58.967Z,4.02
2017-04-10T10:11:05.076Z,5.12
2017-04-10T10:12:13.128Z,4.65
2017-04-10T10:13:19.175Z,2.38
2017-04-10T10:14:25.257Z,2.77
2017-04-10T10:15:31.375Z,4.07
2017-04-10T10:16:37.388Z,7.78
2017-04-10T10:17:43.421Z,1.78
2017-04-10T10:18:49.578Z,2.07
2017-04-10T10:19:55.573Z,3.88
2017-04-10T10:21:01.615Z,4.08
2017-04-10T10:22:08.494Z,1.27
2017-04-10T10:23:15.343Z,2.25
2017-04-10T10:24:21.323Z,4.65
2017-04-10T10:25:27.350Z,3.48
2017-04-10T10:26:33.287Z,8.70
2017-04-10T10:27:39.277Z,4.80
2017-04-10T10:28:45.965Z,7.60
2017-04-10T10:29:51.944Z,3.50
2017-04-10T10:30:57.980Z,5.70
2017-04-10T10:32:04.051Z,3.83
2017-04-10T10:33:10.128Z,5.70
2017-04-10T10:34:16.196Z,4.42
2017-04-10T10:35:22.223Z,6.47
2017-04-10T10:36:28.308Z,2.45
2017-04-10T10:37:34.460Z,3.22
2017-04-10T10:38:40.731Z,4.90
2017-04-10T10:39:47.501Z,3.37
2017-04-10T10:40:54.372Z,5.48
2017-04-10T10:42:00.704Z,2.25
2017-04-10T10:43:06.531Z,2.23
2017-04-10T10:44:12.685Z,4.23
2017-04-10T10:45:18.671Z,3.63
2017-04-10T10:46:24.607Z,3.17
2017-04-10T10:47:30.968Z,15.83
2017-04-10T10:48:38.211Z,35.70
2017-04-10T10:49:44.418Z,4.12
2017-04-10T10:50:50.281Z,7.98
2017-04-10T10:51:56.293Z,4.77
2017-04-10T10:53:02.227Z,8.53
2017-04-10T10:54:08.315Z,2.50
2017-04-10T10:55:14.571Z,4.40
2017-04-10T10:56:21.247Z,5.15
2017-04-10T10:57:27.384Z,8.30
2017-04-10T10:58:34.120Z,3.37
2017-04-10T10:59:40.056Z,1.28
2017-04-10T11:00:46.038Z,5.08
2017-04-10T11:01:51.948Z,3.92
2017-04-10T11:02:58.043Z,4.32
2017-04-10T11:04:04.736Z,1.40
2017-04-10T11:05:10.916Z,7.52
2017-04-10T11:06:17.177Z,6.17
2017-04-10T11:07:23.178Z,4.15
2017-04-10T11:08:29.545Z,4.58
2017-04-10T11:09:36.221Z,6.92
2017-04-10T11:10:43.089Z,1.63
2017-04-10T11:11:49.854Z,0.55
2017-04-10T11:12:55.892Z,3.05
2017-04-10T11:14:01.877Z,2.05
2017-04-10T11:15:08.015Z,5.02
2017-04-10T11:16:14.751Z,3.62
2017-04-10T11:17:21.767Z,11.33
2017-04-10T11:18:28.459Z,6.63
2017-04-10T11:19:34.672Z,10.32
2017-04-10T11:20:41.473Z,2.83
2017-04-10T11:21:47.664Z,4.27
2017-04-10T11:22:53.647Z,3.20
2017-04-10T11:23:59.744Z,5.22
2017-04-10T11:25:05.696Z,4.65
2017-04-10T11:26:11.784Z,7.02
2017-04-10T11:27:17.699Z,3.27
2017-04-10T11:28:23.921Z,4.40
2017-04-10T11:29:29.943Z,5.77
2017-04-10T11:30:36.020Z,2.25
2017-04-10T11:31:41.969Z,4.93
2017-04-10T11:32:48.013Z,8.32
2017-04-10T11:33:54.119Z,3.40
2017-04-10T11:35:00.148Z,7.50
2017-04-10T11:36:06.981Z,7.07
2017-04-10T11:37:12.843Z,5.93
2017-04-10T11:38:18.897Z,6.05
2017-04-10T11:39:24.995Z,5.78
2017-04-10T11:40:31.112Z,8.23
2017-04-10T11:41:37.251Z,4.17
2017-04-10T11:42:43.280Z,4.88
2017-04-10T11:43:49.419Z,6.15
2017-04-10T11:44:55.524Z,3.67
2017-04-10T11:46:02.416Z,9.32
2017-04-10T11:47:08.624Z,5.98
2017-04-10T11:48:14.751Z,6.37
2017-04-10T11:49:20.896Z,2.08
2017-04-10T11:50:26.940Z,5.77
2017-04-10T11:51:33.033Z,7.37
2017-04-10T11:52:39.852Z,2.68
2017-04-10T11:53:45.872Z,3.73
2017-04-10T11:54:51.803Z,4.08
2017-04-10T11:57:13.671Z,4.70
2017-04-10T11:58:19.644Z,5.05
2017-04-10T11:59:25.785Z,4.77
2017-04-10T12:00:31.980Z,5.27
2017-04-10T12:01:38.156Z,2.37
2017-04-10T12:02:44.072Z,3.55
2017-04-10T12:03:50.047Z,1.95
2017-04-10T12:04:56.082Z,2.50
2017-04-10T12:06:02.093Z,1.12
2017-04-10T12:07:08.264Z,3.32
2017-04-10T12:08:14.304Z,1.30
2017-04-10T12:09:20.368Z,3.88
2017-04-10T12:10:26.382Z,1.88
2017-04-10T12:11:32.318Z,3.48
2017-04-10T12:12:38.279Z,2.02
2017-04-10T12:13:44.355Z,2.65
2017-04-10T12:14:50.272Z,2.48
2017-04-10T12:15:56.232Z,1.68
2017-04-10T12:17:02.288Z,3.78
2017-04-10T12:18:08.394Z,4.20
2017-04-10T12:19:15.100Z,6.68
2017-04-10T12:20:21.131Z,3.20
2017-04-10T12:21:27.176Z,4.63
2017-04-10T12:22:33.259Z,6.45
2017-04-10T12:23:39.779Z,2.40
2017-04-10T12:24:46.491Z,1.58
2017-04-10T12:25:52.506Z,7.38
2017-04-10T12:26:58.454Z,5.58
2017-04-10T12:28:04.788Z,3.23
2017-04-10T12:29:10.804Z,5.13
2017-04-10T12:30:16.728Z,8.12
2017-04-10T12:31:22.885Z,2.23
2017-04-10T12:32:28.831Z,3.35
2017-04-10T12:33:34.956Z,6.42
2017-04-10T12:34:41.269Z,1.10
2017-04-10T12:35:47.214Z,2.00
2017-04-10T12:36:53.294Z,2.55
2017-04-10T12:37:59.337Z,14.23
2017-04-10T12:39:05.775Z,4.47
2017-04-10T12:40:11.911Z,1.62
2017-04-10T12:41:18.861Z,3.42
2017-04-10T12:42:24.967Z,4.85
2017-04-10T12:43:31.035Z,5.30
2017-04-10T12:44:37.063Z,5.28
2017-04-10T12:48:46.513Z,4.32
2017-04-10T12:49:52.503Z,2.88
2017-04-10T12:50:58.580Z,1.73
2017-04-10T12:52:04.720Z,2.68
2017-04-10T12:53:10.680Z,7.57
2017-04-10T13:02:11.516Z,1.88
2017-04-10T13:04:58.944Z,4.25
2017-04-10T13:06:04.951Z,2.92
2017-04-10T13:07:10.830Z,10.90
2017-04-10T13:08:16.912Z,1.75
2017-04-10T13:09:23.067Z,8.82
2017-04-10T13:10:29.450Z,3.03
2017-04-10T13:11:35.684Z,1.22
2017-04-10T13:12:41.852Z,6.42
2017-04-10T13:13:48.069Z,8.27
2017-04-10T13:14:54.144Z,5.02
2017-04-10T13:16:00.147Z,2.38
2017-04-10T13:17:06.224Z,4.67
2017-04-10T13:18:12.498Z,6.70
2017-04-10T13:19:18.548Z,3.52
2017-04-10T13:20:25.341Z,4.50
2017-04-10T13:21:31.260Z,7.43
2017-04-10T13:22:37.284Z,3.00
2017-04-10T13:23:43.439Z,1.85
2017-04-10T13:24:49.661Z,5.12
2017-04-10T13:25:55.633Z,1.73
2017-04-10T13:27:01.639Z,5.87
2017-04-10T13:28:07.717Z,5.27
2017-04-10T13:29:13.669Z,1.90
2017-04-10T13:30:20.881Z,3.80
2017-04-10T13:31:26.865Z,4.48
2017-04-10T13:32:33.267Z,3.38
2017-04-10T13:33:40.143Z,7.72
2017-04-10T13:34:46.193Z,1.13
2017-04-10T13:35:52.187Z,3.23
2017-04-10T13:36:59.120Z,5.77
2017-04-10T13:38:05.207Z,5.40
2017-04-10T13:39:11.219Z,1.73
2017-04-10T13:40:18.258Z,3.00
2017-04-10T13:41:24.397Z,2.92
2017-04-10T13:42:30.430Z,3.93
2017-04-10T13:43:37.325Z,4.25
2017-04-10T13:44:44.176Z,3.30
2017-04-10T13:45:50.520Z,6.92
2017-04-10T13:46:57.155Z,2.20
2017-04-10T13:48:03.231Z,2.48
2017-04-10T13:49:09.429Z,3.90
2017-04-10T13:50:15.460Z,2.38
2017-04-10T13:51:21.607Z,5.57
2017-04-10T13:52:28.411Z,2.67
2017-04-10T13:53:34.390Z,3.33
2017-04-10T13:54:41.283Z,6.43
2017-04-10T13:55:47.249Z,1.47
2017-04-10T13:56:52.487Z,4.37
2017-04-10T13:57:58.519Z,4.95
2017-04-10T13:59:04.604Z,0.88
2017-04-10T14:00:10.812Z,7.35
2017-04-10T14:01:16.803Z,5.33
2017-04-10T14:02:22.777Z,1.70
2017-04-10T14:03:28.634Z,4.98
2017-04-10T14:04:34.649Z,6.05
2017-04-10T14:05:40.783Z,1.90
2017-04-10T14:06:47.547Z,1.77
2017-04-10T14:07:54.365Z,2.02
2017-04-10T14:09:00.444Z,1.38
2017-04-10T14:10:06.486Z,4.75
2017-04-10T14:11:13.254Z,2.05
2017-04-10T14:12:19.940Z,2.43
2017-04-10T14:13:26.047Z,4.23
2017-04-10T14:14:31.953Z,4.28
2017-04-10T14:15:37.957Z,0.78
2017-04-10T14:16:44.084Z,5.00
2017-04-10T14:17:50.121Z,2.07
2017-04-10T14:18:56.556Z,6.20
2017-04-10T14:20:02.716Z,5.23
2017-04-10T14:21:09.232Z,3.22
2017-04-10T14:22:15.461Z,3.35
2017-04-10T14:23:21.406Z,3.45
2017-04-10T14:24:27.504Z,2.25
2017-04-10T14:25:33.468Z,3.18
2017-04-10T14:26:39.726Z,3.25
2017-04-10T14:27:46.379Z,2.40
2017-04-10T14:28:52.364Z,4.57
2017-04-10T14:29:58.407Z,1.03
2017-04-10T14:31:04.364Z,4.18
2017-04-10T14:32:11.263Z,7.78
2017-04-10T14:33:17.244Z,5.73
2017-04-10T14:34:23.345Z,4.32
2017-04-10T14:35:29.803Z,1.62
2017-04-10T14:36:36.607Z,5.35
2017-04-10T14:37:42.727Z,2.18
2017-04-10T14:38:49.470Z,10.15
2017-04-10T14:39:55.612Z,3.78
2017-04-10T14:41:01.861Z,5.77
2017-04-10T14:42:07.898Z,5.27
2017-04-10T14:43:13.962Z,9.23
2017-04-10T14:44:20.011Z,6.92
2017-04-10T14:45:26.062Z,8.28
2017-04-10T14:46:32.768Z,5.53
2017-04-10T14:47:38.964Z,8.68
2017-04-10T14:48:45.475Z,4.40
2017-04-10T14:49:52.440Z,2.32
2017-04-10T14:50:59.282Z,6.68
2017-04-10T14:52:05.944Z,8.18
2017-04-10T14:53:12.116Z,3.98
2017-04-10T14:54:18.433Z,3.72